createdAt,value
2024-03-08T09:01:34.440Z,29.1463
2024-03-08T09:02:36.047Z,31.2932
2024-03-08T09:03:37.448Z,29.5415
2024-03-08T09:04:38.857Z,30.7912
2024-03-08T09:05:40.806Z,29.3400
2024-03-08T09:06:43.901Z,29.5903
2024-03-08T09:07:45.289Z,29.3248
2024-03-08T09:08:46.633Z,29.2164
2024-03-08T09:09:47.959Z,29.2927
2024-03-08T09:10:51.832Z,29.3446
2024-03-08T09:11:53.603Z,29.4408
2024-03-08T09:12:54.958Z,29.7826
2024-03-08T09:13:56.410Z,29.1966
2024-03-08T09:14:57.741Z,29.3904
2024-03-08T09:15:59.048Z,29.0959
2024-03-08T09:18:12.505Z,29.5915
2024-03-08T09:19:13.625Z,29.7931
2024-03-08T09:20:13.842Z,29.8226
2024-03-08T09:21:14.670Z,30.1008
2024-03-08T09:22:15.386Z,29.9399
2024-03-08T09:23:16.516Z,29.8871
2024-03-08T09:25:19.342Z,29.4453
2024-03-08T09:27:12.370Z,29.2365
2024-03-08T09:28:11.503Z,29.2632
2024-03-08T09:29:12.749Z,29.5252
2024-03-08T09:30:13.981Z,29.4520
2024-03-08T09:31:15.252Z,29.4661
2024-03-08T09:32:16.495Z,29.6687
2024-03-08T09:33:17.827Z,29.7014
2024-03-08T09:34:22.914Z,29.7325
2024-03-08T09:35:19.731Z,29.7161
2024-03-08T09:36:21.013Z,29.6694
2024-03-08T09:37:22.271Z,29.6264
2024-03-08T09:38:23.516Z,29.5822
2024-03-08T09:39:27.164Z,29.5553
2024-03-08T09:40:26.739Z,29.5275
2024-03-08T09:41:27.983Z,29.5246
2024-03-08T09:42:29.331Z,29.5516
2024-03-08T09:43:30.604Z,29.5986
2024-03-08T09:44:31.832Z,29.6317
2024-03-08T09:46:34.298Z,29.6564
2024-03-08T09:47:35.638Z,29.6560
2024-03-08T09:49:29.349Z,30.1344
2024-03-08T09:50:37.147Z,29.9285
2024-03-08T09:51:44.958Z,29.6495
2024-03-08T09:52:52.879Z,29.5341
2024-03-08T09:54:02.918Z,29.4234
2024-03-08T09:56:36.897Z,29.3795
2024-03-08T09:57:44.674Z,29.3292
2024-03-08T10:00:24.966Z,29.5472
2024-03-08T10:01:33.217Z,29.2148
2024-03-08T10:02:41.020Z,29.0075
2024-03-08T10:03:48.900Z,28.8941
2024-03-08T10:04:56.741Z,28.9611
2024-03-08T10:06:04.671Z,29.0479
2024-03-08T10:07:12.518Z,29.0933
2024-03-08T10:08:20.347Z,29.1207
2024-03-08T10:09:28.218Z,29.1327
2024-03-08T10:10:36.046Z,29.1448
2024-03-08T10:11:43.860Z,29.1605
2024-03-08T10:12:51.672Z,29.1553
2024-03-08T10:13:59.538Z,29.1497
2024-03-08T10:15:07.359Z,29.1407
2024-03-08T10:16:15.270Z,29.1269
2024-03-08T10:17:23.081Z,29.1238
2024-03-08T10:18:30.922Z,29.1172
2024-03-08T10:19:38.770Z,29.1037
2024-03-08T10:20:46.616Z,29.0857
2024-03-08T10:21:54.533Z,29.0668
2024-03-08T10:23:10.123Z,29.0448
2024-03-08T10:24:07.750Z,29.0295
2024-03-08T10:25:15.645Z,29.0044
2024-03-08T10:26:23.549Z,29.0150
2024-03-08T10:27:33.175Z,28.9957
2024-03-08T10:28:41.157Z,28.9556
2024-03-08T10:29:49.048Z,28.9058
2024-03-08T10:30:56.932Z,28.8620
2024-03-08T10:32:04.885Z,28.8316
2024-03-08T10:33:12.832Z,28.8206
2024-03-08T10:36:07.457Z,28.3618
2024-03-08T10:37:15.244Z,28.2646
2024-03-08T10:38:23.087Z,28.2079
2024-03-08T10:39:31.025Z,28.1428
2024-03-08T10:44:58.407Z,28.2237
2024-03-08T16:38:29.680Z,34.3254
2024-03-08T16:39:37.475Z,34.3337
2024-03-08T16:40:45.642Z,34.2095
2024-03-08T16:41:49.880Z,34.1146
2024-03-08T16:42:57.906Z,34.1110
2024-03-08T16:44:05.810Z,34.0611
2024-03-08T16:45:13.681Z,33.9787
2024-03-08T16:46:21.939Z,33.9076
2024-03-08T16:47:30.149Z,33.9122
2024-03-08T16:51:39.917Z,33.2954
2024-03-08T16:52:49.169Z,33.4380
2024-03-08T17:07:06.054Z,61.0183
2024-03-08T17:08:13.864Z,61.1487
2024-03-08T17:09:21.856Z,61.1573
2024-03-08T17:10:29.952Z,61.1980
2024-03-08T17:11:37.972Z,61.2326
2024-03-08T17:12:45.793Z,61.2391
2024-03-08T17:13:53.693Z,61.2567
2024-03-08T17:15:01.609Z,61.2917
2024-03-08T17:16:09.405Z,61.3087
2024-03-08T17:17:17.384Z,61.3376
2024-03-08T17:18:25.234Z,61.3645
2024-03-08T17:19:33.118Z,61.3790
2024-03-08T17:20:40.905Z,61.4137
2024-03-08T17:21:48.789Z,61.4361
2024-03-08T17:22:57.623Z,61.4495
2024-03-08T17:23:58.088Z,61.4550
2024-03-08T17:25:05.944Z,61.4682
2024-03-08T17:26:13.987Z,61.4728
2024-03-08T17:27:22.485Z,61.4776
2024-03-08T17:28:30.333Z,61.4891
2024-03-08T17:29:38.192Z,61.4947
2024-03-08T17:30:45.974Z,61.4981
2024-03-08T17:31:53.863Z,61.5123
2024-03-08T17:33:02.032Z,61.5219
2024-03-08T17:34:09.856Z,61.5305
2024-03-08T17:35:17.707Z,61.5398
2024-03-08T17:36:25.522Z,61.5427
2024-03-08T17:38:07.544Z,61.7613
2024-03-08T17:39:15.343Z,55.6765
2024-03-08T17:40:23.323Z,57.3569
2024-03-08T17:41:31.167Z,59.0929
2024-03-08T17:42:39.044Z,59.4680
2024-03-08T17:43:47.032Z,59.8755
2024-03-08T17:44:54.883Z,60.2468
2024-03-08T17:46:02.755Z,60.4839
2024-03-08T17:47:10.660Z,60.1883
2024-03-08T17:48:19.312Z,60.2737
2024-03-08T17:49:27.366Z,60.2535
2024-03-08T17:50:35.222Z,60.4955
2024-03-08T17:51:43.082Z,60.4122
2024-03-08T17:52:50.988Z,60.5713
2024-03-08T17:53:58.906Z,60.6506
2024-03-08T17:55:06.741Z,60.8146
2024-03-08T17:56:14.767Z,60.6844
2024-03-08T17:57:22.580Z,60.7841
2024-03-08T17:58:30.485Z,60.9218
2024-03-08T17:59:38.330Z,60.8595
2024-03-08T18:00:46.214Z,60.8421
2024-03-08T18:01:54.150Z,60.6929
2024-03-08T18:03:02.013Z,61.0546
2024-03-08T18:04:09.881Z,60.8875
2024-03-08T18:05:17.702Z,60.9817
2024-03-08T18:06:25.593Z,61.2552
2024-03-08T18:07:33.433Z,61.0803
2024-03-08T18:08:41.313Z,61.3487
2024-03-08T18:09:49.290Z,61.2896
2024-03-08T18:10:57.185Z,61.2987
2024-03-08T18:12:05.086Z,61.2200
2024-03-08T18:13:12.956Z,61.3172
2024-03-08T18:14:20.840Z,61.3712
2024-03-08T18:15:28.700Z,61.2129
2024-03-08T18:16:36.622Z,61.2991
2024-03-08T18:17:44.456Z,61.4666
2024-03-08T18:18:52.294Z,61.4429
2024-03-08T18:20:00.240Z,61.3437
2024-03-08T18:21:08.069Z,61.3186
2024-03-08T18:22:15.935Z,61.4845
2024-03-08T18:23:23.801Z,61.3731
2024-03-08T18:24:31.692Z,61.3779
2024-03-08T18:25:39.597Z,61.4200
2024-03-08T18:26:47.379Z,61.5263
2024-03-08T18:27:55.237Z,61.6386
2024-03-08T18:29:03.149Z,61.6331
2024-03-08T18:30:10.978Z,61.5621
2024-03-08T18:31:18.979Z,61.7470
